Time,TemperatureF,DewpointF,PressureIn,WindDirection,WindDirectionDegrees,WindSpeedMPH,WindSpeedGustMPH,Humidity,HourlyPrecipIn,Conditions,Clouds,dailyrainin,SoftwareType,DateUTC
2013-03-24 00:12:00,38.2,38.0,29.75,SSW,205,0.0,-999.0,98,-99.99,,,0.06,weatherlink.com 1.10,2013-03-24 04:12:00,
2013-03-24 00:27:00,38.2,38.0,29.73,SSW,205,0.0,-999.0,98,-99.99,,,0.06,weatherlink.com 1.10,2013-03-24 04:27:00,
2013-03-24 00:42:00,38.0,38.0,29.74,SSW,205,0.0,-999.0,98,-99.99,,,0.06,weatherlink.com 1.10,2013-03-24 04:42:00,
2013-03-24 00:57:00,38.0,38.0,29.74,SSW,205,0.0,-999.0,99,-99.99,,,0.06,weatherlink.com 1.10,2013-03-24 04:57:00,
2013-03-24 01:12:00,38.5,38.0,29.75,SW,227,7.0,-999.0,99,-99.99,,,0.00,weatherlink.com 1.10,2013-03-24 05:12:00,
2013-03-24 01:27:00,38.3,38.0,29.77,WSW,251,4.0,-999.0,99,-99.99,,,0.01,weatherlink.com 1.10,2013-03-24 05:27:00,
2013-03-24 01:42:00,38.6,38.0,29.76,SSW,192,4.0,-999.0,99,-99.99,,,0.02,weatherlink.com 1.10,2013-03-24 05:42:00,
2013-03-24 01:58:00,39.5,39.0,29.74,South,184,3.0,-999.0,99,-99.99,,,0.04,weatherlink.com 1.10,2013-03-24 05:58:00,
2013-03-24 02:13:00,40.3,40.0,29.74,SW,220,0.0,-999.0,99,-99.99,,,0.06,weatherlink.com 1.10,2013-03-24 06:13:00,
2013-03-24 02:28:00,40.8,41.0,29.70,East,82,4.0,-999.0,99,-99.99,,,0.08,weatherlink.com 1.10,2013-03-24 06:28:00,
2013-03-24 02:43:00,38.6,38.0,29.69,East,82,0.0,-999.0,99,-99.99,,,0.09,weatherlink.com 1.10,2013-03-24 06:43:00,
2013-03-24 02:58:00,38.5,38.0,29.69,East,82,0.0,-999.0,99,-99.99,,,0.11,weatherlink.com 1.10,2013-03-24 06:58:00,
2013-03-24 03:13:00,38.3,38.0,29.68,East,82,0.0,-999.0,99,-99.99,,,0.13,weatherlink.com 1.10,2013-03-24 07:13:00,
2013-03-24 03:28:00,37.9,38.0,29.67,East,82,0.0,-999.0,99,-99.99,,,0.14,weatherlink.com 1.10,2013-03-24 07:28:00,
2013-03-24 03:43:00,37.5,37.0,29.67,East,82,0.0,-999.0,99,-99.99,,,0.15,weatherlink.com 1.10,2013-03-24 07:43:00,
2013-03-24 03:58:00,37.2,37.0,29.67,East,82,0.0,-999.0,99,-99.99,,,0.16,weatherlink.com 1.10,2013-03-24 07:58:00,
2013-03-24 04:13:00,36.6,36.0,29.65,East,84,0.0,-999.0,99,-99.99,,,0.17,weatherlink.com 1.10,2013-03-24 08:13:00,
2013-03-24 04:28:00,37.9,38.0,29.64,SW,230,3.0,-999.0,100,-99.99,,,0.17,weatherlink.com 1.10,2013-03-24 08:28:00,
2013-03-24 04:58:00,38.5,39.0,29.61,SW,218,0.0,-999.0,100,-99.99,,,0.18,weatherlink.com 1.10,2013-03-24 08:58:00,
2013-03-24 05:13:00,36.3,36.0,29.59,SE,144,0.0,-999.0,100,-99.99,,,0.18,weatherlink.com 1.10,2013-03-24 09:13:00,
2013-03-24 05:28:00,36.2,36.0,29.59,SE,134,0.0,-999.0,100,-99.99,,,0.19,weatherlink.com 1.10,2013-03-24 09:28:00,
2013-03-24 05:43:00,35.8,36.0,29.60,NNW,346,0.0,-999.0,100,-99.99,,,0.21,weatherlink.com 1.10,2013-03-24 09:43:00,
2013-03-24 05:58:00,35.8,36.0,29.59,NNW,346,0.0,-999.0,100,-99.99,,,0.22,weatherlink.com 1.10,2013-03-24 09:58:00,
2013-03-24 06:13:00,35.8,36.0,29.58,NNW,346,0.0,-999.0,100,-99.99,,,0.24,weatherlink.com 1.10,2013-03-24 10:13:00,
2013-03-24 06:28:00,35.8,36.0,29.57,NNW,346,0.0,-999.0,100,-99.99,,,0.25,weatherlink.com 1.10,2013-03-24 10:28:00,
2013-03-24 06:43:00,36.0,36.0,29.56,NNW,346,0.0,-999.0,100,-99.99,,,0.27,weatherlink.com 1.10,2013-03-24 10:43:00,
2013-03-24 06:58:00,36.3,36.0,29.58,NNW,346,0.0,-999.0,100,-99.99,,,0.29,weatherlink.com 1.10,2013-03-24 10:58:00,
2013-03-24 07:13:00,36.6,37.0,29.58,NNW,335,2.0,-999.0,100,-99.99,,,0.31,weatherlink.com 1.10,2013-03-24 11:13:00,
2013-03-24 07:28:00,36.5,37.0,29.58,WSW,244,5.0,-999.0,100,-99.99,,,0.33,weatherlink.com 1.10,2013-03-24 11:28:00,
2013-03-24 07:43:00,35.8,36.0,29.61,SW,226,3.0,-999.0,100,-99.99,,,0.35,weatherlink.com 1.10,2013-03-24 11:43:00,
2013-03-24 07:58:00,36.2,36.0,29.60,West,259,0.0,-999.0,100,-99.99,,,0.37,weatherlink.com 1.10,2013-03-24 11:58:00,
2013-03-24 08:13:00,36.5,37.0,29.58,West,259,0.0,-999.0,100,-99.99,,,0.41,weatherlink.com 1.10,2013-03-24 12:13:00,
2013-03-24 08:28:00,37.9,38.0,29.58,West,259,0.0,-999.0,100,-99.99,,,0.45,weatherlink.com 1.10,2013-03-24 12:28:00,
2013-03-24 08:43:00,37.9,38.0,29.58,West,264,1.0,-999.0,100,-99.99,,,0.47,weatherlink.com 1.10,2013-03-24 12:43:00,
2013-03-24 08:58:00,36.9,37.0,29.57,West,259,2.0,-999.0,100,-99.99,,,0.51,weatherlink.com 1.10,2013-03-24 12:58:00,
2013-03-24 09:13:00,37.3,37.0,29.57,West,259,0.0,-999.0,100,-99.99,,,0.53,weatherlink.com 1.10,2013-03-24 13:13:00,
2013-03-24 09:28:00,37.8,38.0,29.58,West,259,0.0,-999.0,100,-99.99,,,0.55,weatherlink.com 1.10,2013-03-24 13:28:00,
2013-03-24 09:43:00,37.5,38.0,29.57,NNW,336,0.0,-999.0,100,-99.99,,,0.58,weatherlink.com 1.10,2013-03-24 13:43:00,
2013-03-24 09:58:00,36.6,37.0,29.58,East,85,3.0,-999.0,100,-99.99,,,0.59,weatherlink.com 1.10,2013-03-24 13:58:00,
2013-03-24 10:13:00,36.2,36.0,29.57,ESE,116,0.0,-999.0,100,-99.99,,,0.61,weatherlink.com 1.10,2013-03-24 14:13:00,
2013-03-24 10:28:00,36.2,36.0,29.57,ESE,105,2.0,-999.0,100,-99.99,,,0.62,weatherlink.com 1.10,2013-03-24 14:28:00,
2013-03-24 10:43:00,36.0,36.0,29.57,ESE,104,3.0,-999.0,100,-99.99,,,0.63,weatherlink.com 1.10,2013-03-24 14:43:00,
2013-03-24 10:58:00,36.0,36.0,29.57,ENE,58,2.0,-999.0,100,-99.99,,,0.65,weatherlink.com 1.10,2013-03-24 14:58:00,
2013-03-24 11:13:00,36.0,36.0,29.57,ESE,117,1.0,-999.0,100,-99.99,,,0.66,weatherlink.com 1.10,2013-03-24 15:13:00,
2013-03-24 11:28:00,36.0,36.0,29.58,East,79,0.0,-999.0,100,-99.99,,,0.67,weatherlink.com 1.10,2013-03-24 15:28:00,
2013-03-24 11:43:00,36.2,36.0,29.58,East,95,1.0,-999.0,100,-99.99,,,0.68,weatherlink.com 1.10,2013-03-24 15:43:00,
2013-03-24 11:58:00,36.0,36.0,29.58,ENE,66,1.0,-999.0,100,-99.99,,,0.69,weatherlink.com 1.10,2013-03-24 15:58:00,
2013-03-24 12:13:00,36.3,36.0,29.57,ENE,74,0.0,-999.0,100,-99.99,,,0.71,weatherlink.com 1.10,2013-03-24 16:13:00,
2013-03-24 12:28:00,37.8,38.0,29.57,ENE,74,0.0,-999.0,100,-99.99,,,0.72,weatherlink.com 1.10,2013-03-24 16:28:00,
2013-03-24 12:43:00,37.6,38.0,29.55,ENE,74,0.0,-999.0,100,-99.99,,,0.73,weatherlink.com 1.10,2013-03-24 16:43:00,
2013-03-24 12:58:00,38.0,38.0,29.54,ENE,74,0.0,-999.0,100,-99.99,,,0.74,weatherlink.com 1.10,2013-03-24 16:58:00,
2013-03-24 13:13:00,38.8,39.0,29.54,ENE,74,1.0,-999.0,100,-99.99,,,0.75,weatherlink.com 1.10,2013-03-24 17:13:00,
2013-03-24 13:28:00,39.1,39.0,29.52,East,86,0.0,-999.0,100,-99.99,,,0.76,weatherlink.com 1.10,2013-03-24 17:28:00,
2013-03-24 13:43:00,38.8,39.0,29.51,East,86,0.0,-999.0,100,-99.99,,,0.77,weatherlink.com 1.10,2013-03-24 17:43:00,
2013-03-24 13:58:00,38.9,39.0,29.50,ENE,58,2.0,-999.0,100,-99.99,,,0.77,weatherlink.com 1.10,2013-03-24 17:58:00,
2013-03-24 14:13:00,39.2,39.0,29.48,ENE,61,0.0,-999.0,100,-99.99,,,0.77,weatherlink.com 1.10,2013-03-24 18:13:00,
2013-03-24 14:28:00,40.1,40.0,29.48,South,185,0.0,-999.0,100,-99.99,,,0.77,weatherlink.com 1.10,2013-03-24 18:28:00,
2013-03-24 14:43:00,41.6,42.0,29.46,East,83,1.0,-999.0,100,-99.99,,,0.77,weatherlink.com 1.10,2013-03-24 18:43:00,
2013-03-24 14:58:00,40.3,40.0,29.44,NE,43,0.0,-999.0,100,-99.99,,,0.77,weatherlink.com 1.10,2013-03-24 18:58:00,
2013-03-24 15:13:00,40.1,40.0,29.44,East,99,0.0,-999.0,100,-99.99,,,0.77,weatherlink.com 1.10,2013-03-24 19:13:00,
2013-03-24 15:28:00,39.8,40.0,29.44,East,99,0.0,-999.0,100,-99.99,,,0.77,weatherlink.com 1.10,2013-03-24 19:28:00,
2013-03-24 15:43:00,41.3,41.0,29.43,WSW,238,0.0,-999.0,100,-99.99,,,0.77,weatherlink.com 1.10,2013-03-24 19:43:00,
2013-03-24 15:58:00,40.3,40.0,29.41,WSW,238,0.0,-999.0,100,-99.99,,,0.77,weatherlink.com 1.10,2013-03-24 19:58:00,
2013-03-24 16:13:00,40.9,41.0,29.41,SW,221,0.0,-999.0,100,-99.99,,,0.77,weatherlink.com 1.10,2013-03-24 20:13:00,
2013-03-24 16:28:00,41.2,41.0,29.39,ESE,113,0.0,-999.0,100,-99.99,,,0.77,weatherlink.com 1.10,2013-03-24 20:28:00,
2013-03-24 16:43:00,42.6,43.0,29.38,SSE,163,0.0,-999.0,100,-99.99,,,0.77,weatherlink.com 1.10,2013-03-24 20:43:00,
2013-03-24 16:58:00,43.3,43.0,29.37,SSW,207,4.0,-999.0,100,-99.99,,,0.77,weatherlink.com 1.10,2013-03-24 20:58:00,
2013-03-24 17:13:00,43.5,44.0,29.37,SW,223,4.0,-999.0,100,-99.99,,,0.77,weatherlink.com 1.10,2013-03-24 21:13:00,
2013-03-24 17:28:00,43.6,44.0,29.36,SE,142,0.0,-999.0,100,-99.99,,,0.77,weatherlink.com 1.10,2013-03-24 21:28:00,
2013-03-24 17:43:00,43.8,44.0,29.36,South,191,3.0,-999.0,100,-99.99,,,0.77,weatherlink.com 1.10,2013-03-24 21:43:00,
2013-03-24 17:58:00,43.6,44.0,29.35,WSW,240,2.0,-999.0,100,-99.99,,,0.77,weatherlink.com 1.10,2013-03-24 21:58:00,
2013-03-24 18:13:00,43.3,43.0,29.35,SSE,167,2.0,-999.0,99,-99.99,,,0.77,weatherlink.com 1.10,2013-03-24 22:13:00,
2013-03-24 18:28:00,42.8,42.0,29.37,SSW,199,2.0,-999.0,97,-99.99,,,0.77,weatherlink.com 1.10,2013-03-24 22:28:00,
2013-03-24 18:43:00,42.1,41.0,29.38,SW,222,4.0,-999.0,97,-99.99,,,0.77,weatherlink.com 1.10,2013-03-24 22:43:00,
2013-03-24 18:58:00,41.6,41.0,29.37,SSW,205,4.0,-999.0,98,-99.99,,,0.77,weatherlink.com 1.10,2013-03-24 22:58:00,
2013-03-24 19:13:00,41.2,41.0,29.36,WSW,242,2.0,-999.0,99,-99.99,,,0.77,weatherlink.com 1.10,2013-03-24 23:13:00,
2013-03-24 19:28:00,41.5,41.0,29.37,NNW,344,5.0,-999.0,97,-99.99,,,0.77,weatherlink.com 1.10,2013-03-24 23:28:00,
2013-03-24 19:43:00,41.3,40.0,29.36,WSW,254,4.0,-999.0,94,-99.99,,,0.79,weatherlink.com 1.10,2013-03-24 23:43:00,
2013-03-24 19:58:00,40.9,40.0,29.37,NNW,335,0.0,-999.0,96,-99.99,,,0.80,weatherlink.com 1.10,2013-03-24 23:58:00,
2013-03-24 20:14:00,40.3,39.0,29.38,WNW,300,0.0,-999.0,96,-99.99,,,0.81,weatherlink.com 1.10,2013-03-25 00:14:00,
2013-03-24 20:28:00,39.6,38.0,29.38,NW,316,4.0,-999.0,95,-99.99,,,0.83,weatherlink.com 1.10,2013-03-25 00:28:00,
2013-03-24 20:44:00,39.5,39.0,29.39,NE,51,3.0,-999.0,96,-99.99,,,0.85,weatherlink.com 1.10,2013-03-25 00:44:00,
2013-03-24 20:59:00,39.3,38.0,29.38,NNW,327,1.0,-999.0,96,-99.99,,,0.86,weatherlink.com 1.10,2013-03-25 00:59:00,
2013-03-24 21:14:00,39.3,38.0,29.38,NW,305,3.0,-999.0,96,-99.99,,,0.88,weatherlink.com 1.10,2013-03-25 01:14:00,
2013-03-24 21:44:00,38.2,37.0,29.39,WNW,296,3.0,-999.0,96,-99.99,,,0.91,weatherlink.com 1.10,2013-03-25 01:44:00,
2013-03-24 21:59:00,36.5,35.0,29.40,WNW,287,10.0,-999.0,94,-99.99,,,0.95,weatherlink.com 1.10,2013-03-25 01:59:00,
2013-03-24 22:14:00,36.0,34.0,29.41,WNW,288,3.0,-999.0,92,-99.99,,,1.00,weatherlink.com 1.10,2013-03-25 02:14:00,
2013-03-24 22:29:00,35.2,31.0,29.43,ESE,102,5.0,-999.0,86,-99.99,,,1.04,weatherlink.com 1.10,2013-03-25 02:29:00,
2013-03-24 22:44:00,34.6,30.0,29.45,WNW,288,11.0,-999.0,83,-99.99,,,1.09,weatherlink.com 1.10,2013-03-25 02:44:00,
2013-03-24 22:59:00,34.3,30.0,29.45,SW,225,16.0,-999.0,83,-99.99,,,1.13,weatherlink.com 1.10,2013-03-25 02:59:00,
2013-03-24 23:14:00,33.8,29.0,29.43,WSW,258,10.0,-999.0,81,-99.99,,,1.16,weatherlink.com 1.10,2013-03-25 03:14:00,
2013-03-24 23:29:00,33.5,29.0,29.43,WSW,249,9.0,-999.0,83,-99.99,,,1.17,weatherlink.com 1.10,2013-03-25 03:29:00,
2013-03-24 23:44:00,32.9,29.0,29.44,SW,220,10.0,-999.0,86,-99.99,,,1.18,weatherlink.com 1.10,2013-03-25 03:44:00,
2013-03-24 23:59:00,32.4,29.0,29.44,WNW,284,9.0,-999.0,87,-99.99,,,1.18,weatherlink.com 1.10,2013-03-25 03:59:00,